Kotzebue, AK

3:46 AM AKDT on August 22, 2014 (GMT -0800)
Wien Memorial | Change Station
CLOSE
Current Station
Airport
Location: Kotzebue,
Elevation: 16 ft
Nearby Weather Stations

Elev 16 ft 66.88 °N, 162.60 °W | Updated 15 minutes ago

Light Rain
Light Rain Mist
52 °F
Feels Like 52 °F
N
0
Wind Variable Wind from North

Today
High -- | Low -- °F
--% Chance of Precip.
Yesterday
High -- | Low -- °F
Precip. -- in
6:47 AM 10:56 PM
Waning Crescent, 9% visible
Pressure 30.22 in
Visibility 5.0 miles
Clouds Few 1400 ft
Mostly Cloudy 2400 ft
Overcast 3400 ft
Dew Point 49 °F
Humidity 89%
Rainfall 0.02 in
Snow Depth Not available.
UV 0 out of 12
Pollen Not available.
Air Quality Not available.
Flu Activity Not available.
SPECI PAOT 221131Z 00000KT 5SM R09/6000VP6000FT -RA BR FEW014 BKN024 OVC034 11/09 A3022 RMK AO2 P0025 T01110094 $

More Conditions Fewer Conditions

Pressure 30.22 in
Visibility 5.0 miles
Clouds Few 1400 ft
Mostly Cloudy 2400 ft
Overcast 3400 ft
Dew Point 49 °F
Humidity 89%
Rainfall 0.02 in
Snow Depth Not available.
UV 0 out of 12
Pollen Not available.
Air Quality Not available.
Flu Activity Not available.
SPECI PAOT 221131Z 00000KT 5SM R09/6000VP6000FT -RA BR FEW014 BKN024 OVC034 11/09 A3022 RMK AO2 P0025 T01110094 $

More Conditions Fewer Conditions

10-Day Weather Forecast

Almanac

Astronomy

Aug. 22, 2014 Rise Set
Actual Time 6:47 AM AKDT 10:56 PM AKDT
Civil Twilight 5:36 AM AKDT 12:05 AM AKDT
Nautical Twilight 3:25 AM AKDT 2:20 AM AKDT
Astronomical Twilight Sun does not rise Sun does not rise
Moon 3:45 AM AKDT 9:32 PM AKDT
Length of Visible Light 18h 29m
Length of Day
16h 08m
Tomorrow will be 7m 43s shorter.
Waning Crescent, 9% of the Moon is Illuminated
Today
Waning Crescent
Aug 25
New
Sep 2
First Quarter
Sep 8
Full
Sep 15
Last Quarter

Today's Extremes

State Highs State Lows

Community

WunderPhotos

Upload Photos

1,746,151 photos uploaded!

WunderBlogs® & News

By Dr. Jeff Masters
Director of Meteorology, Weather Underground
By Kari Strenfel
Meteorologist, Weather Underground
By Christopher C. Burt
Weather Historian, Weather Underground
August 22, 2014
August 22, 2014
August 22, 2014

Nearby

Snow Depth

Station Depth Elevation
Rocky Point 3 in 500 ft
Gobblers Knob 0 in 2030 ft
Coldfoot 1 in 1040 ft
Atigun Pass 0 in 4800 ft
Imnaviat Creek 0 in 3050 ft

Earthquake Activity

City Distance Mag. Time & Date
No recent earthquake activity has been reported nearby.
Minimum magnitude displayed is 2.5.

Coastal Water Temperatures

Place Temperature
No Stations Reporting

Nearby Weather Stations